Aérodrome :
LOGIN :

S'inscrire | Disclaimer

   EN    FR    IT 

 










Légende :    VFR   VFR Marginal   IFR   IFR Intensif   IFR Très Intensif
Visi : 
Plafond : 
>= 8 km
>= 3000ft
5 à 8 km
1000 à 3000 ft
1500m à 5 km
500 à 1000 ft
800 à 1500m
200 à 500 ft
< 800m
< 200 ft
Symboles :   Orages  Brouillard  Fortes neiges  Fortes précipitations  Vent > 20 kt
SIGMETs :   Divers  Orages  Givrage  Turbulence  Onde Orograph.  Cendres Volcan.







- Altitude de l'aérodrome : 659 ft
- Code IATA : LGG


EBLG - Liège

DERNIER METAR :
  • 100420Z 27009KT 9999 FEW023 03/02 Q1020 NOSIG

METARs EXPIRÉS :
  • 100350Z 26009KT 9999 FEW023 SCT034 03/02 Q1020 NOSIG
  • 100320Z 26008KT 9999 FEW023 SCT034 04/02 Q1020 NOSIG
  • 100250Z 25009KT 9999 FEW023 SCT034 03/02 Q1020 NOSIG
  • 100220Z 25007KT 9999 FEW018 SCT030 03/02 Q1020 NOSIG
  • 100150Z 26006KT 9999 FEW015 SCT022 04/03 Q1020 NOSIG

TAF TAF EBLG
Valide du 10 à 00h jusqu'au 11 à 06h UTC


092310Z 1000/1106 28009KT 9999 SCT018
PROB30
TEMPO 1000/1002 4000 SHRA SCT007 BKN014TCU
PROB30
TEMPO 1013/1019 31015G25KT 4000 SHRA SCT007 BKN014TCU
Pas de NOTAMs connus pour ce terrain.



MET'MAP, la Météo Aéronautique d'un coup d'oeil ! - Copyright ORBIFLY Décembre 2007 - Disclaimer

ORBIFLY MET'MAP TEAM :

Programmation & Développement : Alexandra Zaïnal
Conception & Développement : Baudouin d'Aumeries
Co-Programmation & Développement : Marc-Olivier Méhu
Soutien technique & logistique : Manuel Goepfert

Contact : metmap@orbifly.com




SOURCES & CREDITS :

   NOAA